Etusivu
METAR-TAF:

METAR-TAF

Lentoasemat :

Harbor Springs Municipal Airport

Harbor Springs, Michigan, Yhdysvallat

Leveyspiiri: 45-25-32N, Pituuspiiri: 084-54-48W, korkeus merenpinnasta: 209 m

Tämänhetkinen sää

Tämä raportti tehtiin 21 minuuttia sitten, kello 10.36 UTC
Tuuli 5 kn idästä/koillisesta
Lämpötila 2°C
Kosteus 100%
Ilmanpaine 1013 hPa
Näkyvyys: 11.3 km
Pilvistä 10000 ft:n korkeudessa

METAR: KMGN 211036Z AUTO 07005KT 7SM OVC100 02/02 A2991 RMK AO2 T00270026

Aika: 05:57 (10:57 UTC)


TAF: puuttuu

Säähavainnot ja -ennusteet yli 4000 lentoasemalta (METAR- ja TAF-raportit).

Käytössä olevat sääasemat on merkitty karttaan keltaisilla ja punaisilla pisteillä.

Aseta hiiri pisteen päälle nähdäksesi sääaseman nimen.

Klikkaa sitten nähdäksesi säähavainnot ja -ennusteet.

Kartan vaihtaminen: klikkaa mustalla rastilla varustettuja vihreitä pisteitä, niin voit zoomata sisään; viivalla varustettua vihreää pistettä, niin voit zoomata ulos tai vihreitä nuolia, niin pääset viereisille kartoille.


METAR-TAF: